WSSL

Seletar Airport

Seletar, Singapore
TAF WSSL 141700Z 1418/1600 36008KT 9999 FEW015CB SCT020 TEMPO 1506/1510 3000 TSRA FEW012CB BKN015
Issued Valid From Valid To
Dec-14 @ 17:00 UTC
(5 hours ago)
Dec-14 @ 18:00 UTC
(4 hours ago)
Dec-16 @ 00:00 UTC
(-1 days ago)
Dec-14 @ 18:00 to Dec-16 @ 00:00
TAF WSSL 141700Z 1418/1600 36008KT 9999 FEW015CB SCT020
Wind Visibility Clouds
360° at 8 knots 10,000+ meters
  • Few at 1,500' AGL
  • Scattered at 2,000' AGL
Temporary Dec-15 @ 06:00 to Dec-15 @ 10:00
TEMPO 1506/1510 3000 TSRA FEW012CB BKN015
Visibility Clouds Conditions
2,993 meters
  • Few at 1,200' AGL
  • Broken at 1,500' AGL
  • Thunderstorm
  • Rain
TAF WSSL 141700Z 1418/1600 36008KT 9999 FEW015CB SCT020 TEMPO 1506/1510 3000 TSRA FEW012CB BKN015
Issued Dec-14 @ 17:00 UTC
(5 hours ago)
Valid From Dec-14 @ 18:00 UTC
(4 hours ago)
Valid To Dec-16 @ 00:00 UTC
(-1 days ago)
Dec-14 @ 18:00 - Dec-16 @ 00:00
Wind Visibility
360° at 8 knots 10,000+ meters
Clouds
  • Few at 1,500' AGL
  • Scattered at 2,000' AGL
Temporary Dec-15 @ 06:00 - Dec-15 @ 10:00
Clouds
  • Few at 1,200' AGL
  • Broken at 1,500' AGL
Conditions
  • Thunderstorm
  • Rain